Time;durP1;ratioP1;P1;durP2;ratioP2;P2;SDS_P1;SDS_P2;PMS_P1;PMS_P2;Temp;Humidity;BMP_temperature;BMP_pressure;BME280_temperature;BME280_humidity;BME280_pressure;Samples;Min_cycle;Max_cycle;Signal;HPM_P1;HPM_P2
2021/04/21 00:00:40;;;;;;;8.88;4.72;;;;;;;4.41;75.36;101215.81;5070556;28;20047;-64
2021/04/21 00:03:06;;;;;;;8.55;4.25;;;;;;;4.40;75.85;101219.41;5073121;28;20032;-64
2021/04/21 00:05:32;;;;;;;12.68;5.55;;;;;;;4.32;75.08;101216.50;5074535;28;20043;-64
2021/04/21 00:07:58;;;;;;;9.57;4.43;;;;;;;4.29;75.81;101217.56;5074083;28;20365;-64
2021/04/21 00:10:26;;;;;;;10.50;5.03;;;;;;;4.34;76.27;101211.94;5074265;28;20062;-64
2021/04/21 00:12:53;;;;;;;8.52;4.75;;;;;;;4.29;76.64;101209.63;5056627;28;20121;-64
2021/04/21 00:15:22;;;;;;;9.23;5.18;;;;;;;4.42;77.57;101213.09;5074061;28;20040;-64
2021/04/21 00:17:49;;;;;;;10.93;4.93;;;;;;;4.34;76.70;101209.31;5056490;28;20639;-64
2021/04/21 00:20:18;;;;;;;11.98;5.25;;;;;;;4.34;77.26;101206.66;5074110;28;20032;-64
2021/04/21 00:22:45;;;;;;;11.95;5.50;;;;;;;4.27;76.85;101208.06;5074068;28;20052;-64
2021/04/21 00:25:14;;;;;;;17.48;5.80;;;;;;;4.24;76.58;101203.84;5074006;28;20060;-64
2021/04/21 00:27:40;;;;;;;12.20;5.70;;;;;;;4.22;76.56;101203.09;5072787;28;20105;-64
2021/04/21 00:30:09;;;;;;;10.05;5.07;;;;;;;4.17;76.04;101203.44;5056240;28;20035;-64
2021/04/21 00:32:42;;;;;;;15.60;6.72;;;;;;;4.18;77.93;101209.56;5056337;28;20112;-64
2021/04/21 00:35:09;;;;;;;8.88;5.25;;;;;;;4.13;77.41;101201.94;5056463;28;20044;-64
2021/04/21 00:37:36;;;;;;;10.38;5.00;;;;;;;4.07;77.00;101205.03;5073605;28;20178;-64
2021/04/21 00:40:04;;;;;;;11.63;5.68;;;;;;;4.04;77.00;101201.75;5056057;28;20055;-64
2021/04/21 00:42:49;;;;;;;10.05;4.72;;;;;;;3.96;76.52;101194.41;5073548;28;20036;-64
2021/04/21 00:45:18;;;;;;;10.38;5.07;;;;;;;3.93;77.05;101202.50;5056153;28;20055;-64
2021/04/21 00:48:00;;;;;;;8.57;5.28;;;;;;;3.88;76.62;101197.56;5055795;28;20537;-64
2021/04/21 00:50:34;;;;;;;13.00;5.60;;;;;;;3.89;77.32;101196.63;5055994;28;20037;-64
2021/04/21 00:53:07;;;;;;;10.65;5.47;;;;;;;3.88;76.99;101202.84;5055912;28;20036;-64
2021/04/21 00:55:43;;;;;;;13.80;5.93;;;;;;;3.90;76.99;101186.88;5072543;28;20912;-64
2021/04/21 00:58:32;;;;;;;12.27;6.53;;;;;;;3.95;77.48;101192.69;5055629;28;20120;-64
2021/04/21 01:00:59;;;;;;;16.40;7.32;;;;;;;3.91;77.31;101191.22;5055636;28;20124;-64
2021/04/21 01:03:26;;;;;;;11.70;6.22;;;;;;;3.89;77.88;101185.22;5072235;28;20029;-64
2021/04/21 01:05:59;;;;;;;14.73;6.72;;;;;;;3.85;77.65;101194.31;5039021;28;20037;-64
2021/04/21 01:08:29;;;;;;;12.63;5.85;;;;;;;3.79;77.34;101188.50;5038726;28;20415;-64
2021/04/21 01:10:59;;;;;;;13.30;7.00;;;;;;;3.78;77.98;101183.31;5055346;28;20052;-64
2021/04/21 01:13:29;;;;;;;15.77;6.63;;;;;;;3.72;77.43;101189.88;5071897;28;20464;-64
2021/04/21 01:15:57;;;;;;;13.07;7.47;;;;;;;3.68;78.04;101185.75;5038733;28;20036;-64
2021/04/21 01:18:26;;;;;;;13.90;6.45;;;;;;;3.63;77.19;101179.97;5055313;28;20040;-64
2021/04/21 01:21:06;;;;;;;12.40;8.05;;;;;;;3.58;77.73;101179.41;5055206;28;20043;-64
2021/04/21 01:23:50;;;;;;;16.25;7.75;;;;;;;3.53;77.85;101176.25;5055417;28;20465;-64
2021/04/21 01:26:26;;;;;;;12.63;7.10;;;;;;;3.47;77.68;101177.53;5072759;28;20121;-64
2021/04/21 01:28:53;;;;;;;14.38;7.40;;;;;;;3.47;77.88;101181.97;5072669;28;20094;-64
2021/04/21 01:31:21;;;;;;;15.27;7.45;;;;;;;3.47;77.53;101177.53;5072713;28;20051;-64
2021/04/21 01:33:49;;;;;;;9.77;6.63;;;;;;;3.44;77.11;101172.47;5072807;28;20043;-64
2021/04/21 01:36:20;;;;;;;13.98;7.50;;;;;;;3.43;76.38;101176.06;5072658;28;20036;-64
2021/04/21 01:38:47;;;;;;;19.48;7.90;;;;;;;3.43;75.89;101172.56;5054631;28;20471;-64
2021/04/21 01:41:17;;;;;;;18.02;6.47;;;;;;;3.42;76.31;101173.50;5072411;28;20500;-64
2021/04/21 01:43:46;;;;;;;12.80;7.47;;;;;;;3.41;76.95;101172.66;5072652;28;20630;-64
2021/04/21 01:46:14;;;;;;;14.18;6.72;;;;;;;3.37;76.13;101171.19;5054722;28;20444;-64
2021/04/21 01:48:41;;;;;;;17.52;8.52;;;;;;;3.33;76.38;101170.56;5072197;28;20083;-64
2021/04/21 01:51:17;;;;;;;12.32;7.53;;;;;;;3.29;76.57;101166.44;5072247;28;20033;-64
2021/04/21 01:53:51;;;;;;;12.60;7.78;;;;;;;3.26;76.62;101169.31;5071534;28;20119;-63
2021/04/21 01:56:28;;;;;;;14.35;7.22;;;;;;;3.24;76.11;101163.28;5038166;28;20123;-64
2021/04/21 01:59:18;;;;;;;14.95;7.60;;;;;;;3.21;76.22;101166.13;5054359;28;20113;-64
2021/04/21 02:02:24;;;;;;;14.32;7.53;;;;;;;3.23;75.66;101164.25;5037941;28;20039;-64
2021/04/21 02:04:49;;;;;;;;;;;;;;;3.21;75.14;101165.25;5054983;28;20047;-64
2021/04/21 02:07:33;;;;;;;;;;;;;;;3.22;75.49;101170.44;5054817;28;19917;-64
2021/04/21 02:10:07;;;;;;;15.80;8.00;;;;;;;3.20;75.38;101161.78;5071580;28;19951;-64
2021/04/21 02:12:49;;;;;;;13.52;7.45;;;;;;;3.15;75.26;101162.09;5054396;28;20040;-64
2021/04/21 02:15:52;;;;;;;20.35;8.30;;;;;;;3.09;75.90;101161.66;5071992;28;20029;-64
2021/04/21 02:18:51;;;;;;;15.35;8.18;;;;;;;3.08;75.29;101162.63;5070384;28;20029;-64
2021/04/21 02:21:24;;;;;;;14.85;8.35;;;;;;;3.10;76.85;101169.50;5037441;28;20090;-64
2021/04/21 02:24:26;;;;;;;21.95;9.05;;;;;;;3.07;75.93;101166.22;5053721;28;20197;-64
2021/04/21 02:27:24;;;;;;;14.68;8.05;;;;;;;3.02;76.07;101165.66;5071646;28;20040;-64
2021/04/21 02:29:58;;;;;;;15.18;8.75;;;;;;;3.02;75.88;101165.66;5070725;28;20365;-64
2021/04/21 02:32:34;;;;;;;14.73;7.53;;;;;;;2.98;76.01;101164.22;5054145;28;20040;-64
2021/04/21 02:34:59;;;;;;;20.70;8.85;;;;;;;2.91;76.25;101164.63;5071540;28;20040;-64
2021/04/21 02:37:35;;;;;;;17.67;8.10;;;;;;;2.93;76.71;101167.16;5071207;28;20059;-64
2021/04/21 02:40:03;;;;;;;13.88;7.63;;;;;;;2.90;76.36;101164.72;5070624;28;20033;-64
2021/04/21 02:42:53;;;;;;;20.23;9.90;;;;;;;2.89;77.30;101163.88;5037081;28;20040;-64
2021/04/21 02:45:45;;;;;;;15.48;7.78;;;;;;;2.84;77.60;101163.34;5053748;28;20109;-64
2021/04/21 02:48:48;;;;;;;19.13;8.82;;;;;;;2.86;76.85;101160.59;5070985;28;20036;-64
2021/04/21 02:51:25;;;;;;;13.25;8.02;;;;;;;2.86;76.04;101160.59;5071313;28;20032;-64
2021/04/21 02:54:18;;;;;;;17.13;9.25;;;;;;;2.95;76.32;101160.84;5053594;28;20040;-64
2021/04/21 02:56:56;;;;;;;14.68;7.25;;;;;;;2.98;75.88;101159.78;5037107;28;20041;-64
2021/04/21 02:59:32;;;;;;;14.77;8.18;;;;;;;3.00;76.21;101167.56;5069941;28;20117;-64
2021/04/21 03:02:05;;;;;;;15.25;8.35;;;;;;;2.95;76.09;101165.28;5071169;28;20043;-64
2021/04/21 03:04:51;;;;;;;15.40;8.95;;;;;;;2.89;75.51;101163.88;5071268;28;20040;-64
2021/04/21 03:07:31;;;;;;;16.42;8.38;;;;;;;2.87;75.95;101162.28;5053538;28;20512;-64
2021/04/21 03:10:06;;;;;;;14.32;8.45;;;;;;;2.88;75.51;101163.97;5053410;28;20039;-64
2021/04/21 03:12:33;;;;;;;17.52;8.02;;;;;;;2.86;75.63;101160.59;5053086;28;20037;-64
2021/04/21 03:15:05;;;;;;;16.00;9.65;;;;;;;2.85;76.50;101159.75;5071061;28;20369;-64
2021/04/21 03:17:31;;;;;;;16.15;8.15;;;;;;;2.77;75.47;101159.41;5053231;28;20458;-64
2021/04/21 03:20:01;;;;;;;21.55;8.82;;;;;;;2.80;76.12;101151.28;5070878;28;20032;-64
2021/04/21 03:22:28;;;;;;;14.48;7.13;;;;;;;2.74;75.39;101154.34;5070059;28;20051;-64
2021/04/21 03:25:00;;;;;;;17.65;8.52;;;;;;;2.66;75.72;101152.22;5070672;28;20506;-64
2021/04/21 03:27:32;;;;;;;20.27;8.90;;;;;;;2.61;76.32;101148.19;5053284;28;20338;-64
2021/04/21 03:30:02;;;;;;;18.45;9.13;;;;;;;2.63;76.81;101143.66;5069937;28;20043;-64
2021/04/21 03:32:33;;;;;;;16.85;8.75;;;;;;;2.60;76.60;101144.72;5091115;28;20224;-64
2021/04/21 03:35:01;;;;;;;16.50;8.60;;;;;;;2.56;76.22;101142.38;5073408;28;20246;-64
2021/04/21 03:37:47;;;;;;;19.30;9.80;;;;;;;2.52;77.39;101139.94;5094859;28;20038;-64
2021/04/21 03:40:14;;;;;;;17.33;9.45;;;;;;;2.50;76.91;101139.19;5095190;28;20127;-64
2021/04/21 03:42:41;;;;;;;15.40;8.80;;;;;;;2.47;78.03;101139.41;5095242;28;20032;-64
2021/04/21 03:45:08;;;;;;;17.15;9.52;;;;;;;2.43;77.38;101132.63;5095136;28;20468;-64
2021/04/21 03:47:34;;;;;;;17.77;8.75;;;;;;;2.41;77.75;101131.91;5094790;28;20036;-64
2021/04/21 03:50:01;;;;;;;18.05;8.43;;;;;;;2.40;77.80;101127.56;5094918;28;20039;-64
2021/04/21 03:52:27;;;;;;;15.95;9.23;;;;;;;2.39;77.53;101128.53;5095026;28;20039;-64
2021/04/21 03:54:55;;;;;;;24.45;9.63;;;;;;;2.37;77.26;101132.22;5094965;28;20032;-64
2021/04/21 03:57:24;;;;;;;22.85;10.05;;;;;;;2.31;76.59;101121.09;5094855;28;20035;-64
2021/04/21 03:59:52;;;;;;;19.67;9.95;;;;;;;2.27;76.34;101126.66;5094572;28;20082;-64
2021/04/21 04:02:20;;;;;;;18.00;9.23;;;;;;;2.27;76.46;101126.66;5076922;28;20078;-64
2021/04/21 04:04:51;;;;;;;20.05;10.38;;;;;;;2.27;77.42;101126.66;5094645;28;20479;-64
2021/04/21 04:07:22;;;;;;;25.20;9.95;;;;;;;2.25;77.82;101118.88;5094651;28;20441;-64
2021/04/21 04:09:50;;;;;;;17.42;9.90;;;;;;;2.20;77.71;101120.09;5059922;28;20097;-64
2021/04/21 04:12:17;;;;;;;22.02;10.63;;;;;;;2.20;77.33;101120.09;5076636;28;20476;-64
2021/04/21 04:14:45;;;;;;;20.60;9.30;;;;;;;2.19;77.54;101126.34;5076761;28;20032;-64
2021/04/21 04:17:11;;;;;;;17.65;10.43;;;;;;;2.19;77.43;101118.44;5094501;28;20040;-64
2021/04/21 04:19:41;;;;;;;17.33;9.55;;;;;;;2.22;77.46;101126.13;5094248;28;20044;-64
2021/04/21 04:22:17;;;;;;;20.50;9.45;;;;;;;2.26;77.43;101125.00;5094520;28;20032;-64
2021/04/21 04:24:53;;;;;;;25.58;10.43;;;;;;;2.32;77.74;101122.81;5094390;28;20115;-64
2021/04/21 04:27:21;;;;;;;18.33;11.25;;;;;;;2.33;76.64;101124.50;5076526;28;20054;-64
2021/04/21 04:29:47;;;;;;;20.50;11.30;;;;;;;2.37;76.89;101129.56;5094024;28;20043;-64
2021/04/21 04:32:15;;;;;;;22.50;11.98;;;;;;;2.43;76.96;101127.34;5076497;28;20054;-64
2021/04/21 04:34:46;;;;;;;23.10;10.27;;;;;;;2.44;76.10;101128.22;5076355;28;20036;-64
2021/04/21 04:37:14;;;;;;;19.98;10.18;;;;;;;2.48;76.20;101127.06;5094123;28;20032;-64
2021/04/21 04:39:40;;;;;;;19.92;10.50;;;;;;;2.53;76.48;101125.81;5093743;28;20401;-64
2021/04/21 04:42:07;;;;;;;26.67;13.10;;;;;;;2.64;76.85;101130.38;5093812;28;20032;-64
2021/04/21 04:44:40;;;;;;;22.85;11.70;;;;;;;2.70;76.50;101135.25;5093928;28;20059;-64
2021/04/21 04:47:10;;;;;;;18.95;10.40;;;;;;;2.71;76.25;101128.19;5093285;28;20044;-64
2021/04/21 04:49:47;;;;;;;24.70;13.02;;;;;;;2.78;76.05;101126.81;5093859;28;20487;-64
2021/04/21 04:52:13;;;;;;;20.65;11.75;;;;;;;2.92;76.38;101123.25;5093943;28;20059;-64
2021/04/21 04:54:40;;;;;;;28.33;12.52;;;;;;;2.99;76.88;101135.06;5093825;28;20051;-64
2021/04/21 04:57:07;;;;;;;27.20;13.88;;;;;;;3.08;77.66;101138.88;5092763;28;20047;-64
2021/04/21 04:59:33;;;;;;;22.20;11.68;;;;;;;3.12;77.48;101138.56;5093512;28;20134;-64
2021/04/21 05:02:00;;;;;;;;;;;;;;;3.17;77.23;101133.81;5094301;28;20039;-64
2021/04/21 05:04:40;;;;;;;19.05;11.15;;;;;;;3.26;77.29;101145.56;5064582;28;19913;-64
2021/04/21 05:07:07;;;;;;;22.98;11.63;;;;;;;3.32;77.56;101137.19;5075880;28;20039;-64
2021/04/21 05:09:45;;;;;;;22.33;11.45;;;;;;;3.45;77.59;101141.63;5093378;28;20585;-64
2021/04/21 05:12:13;;;;;;;19.67;12.15;;;;;;;3.56;77.96;101139.09;5093488;28;20043;-64
2021/04/21 05:14:40;;;;;;;25.60;15.70;;;;;;;3.71;77.48;101138.00;5075755;28;20040;-64
2021/04/21 05:17:43;;;;;;;26.30;14.23;;;;;;;3.94;77.83;101139.00;5093490;28;20036;-64
2021/04/21 05:20:40;;;;;;;24.58;13.18;;;;;;;4.31;77.82;101131.06;5093264;28;20044;-64
2021/04/21 05:23:17;;;;;;;27.55;13.35;;;;;;;5.55;76.23;101138.47;5058831;28;20085;-64
2021/04/21 05:26:04;;;;;;;29.90;15.57;;;;;;;6.68;71.13;101137.28;5075412;28;20052;-64
2021/04/21 05:28:35;;;;;;;26.85;15.93;;;;;;;7.65;68.82;101142.31;5092057;28;20452;-64
2021/04/21 05:31:03;;;;;;;27.23;14.35;;;;;;;8.20;66.43;101133.97;5075582;28;20107;-65
2021/04/21 05:33:50;;;;;;;29.42;15.02;;;;;;;8.81;64.37;101132.91;5092871;28;20028;-65
2021/04/21 05:36:24;;;;;;;23.55;13.10;;;;;;;8.69;63.65;101134.88;5075210;28;20411;-65
2021/04/21 05:39:11;;;;;;;23.52;15.20;;;;;;;8.93;63.29;101133.56;5075002;28;20380;-65
2021/04/21 05:41:58;;;;;;;26.25;14.15;;;;;;;9.15;62.37;101130.56;5092983;28;20044;-65
2021/04/21 05:44:54;;;;;;;27.55;15.70;;;;;;;9.48;61.46;101125.72;5075155;28;20040;-64
2021/04/21 05:47:44;;;;;;;22.17;14.35;;;;;;;10.00;60.55;101131.38;5058412;28;20036;-65
2021/04/21 05:50:47;;;;;;;27.20;14.32;;;;;;;10.21;58.94;101138.25;5092848;28;20050;-64
2021/04/21 05:53:52;;;;;;;24.15;14.07;;;;;;;9.97;60.10;101142.31;5092801;28;20497;-65
2021/04/21 05:56:23;;;;;;;;;;;;;;;10.18;59.06;101139.38;5093231;28;20153;-65
2021/04/21 05:59:34;;;;;;;23.20;12.52;;;;;;;10.44;58.33;101157.38;5091517;28;20002;-65
2021/04/21 06:02:02;;;;;;;20.80;13.15;;;;;;;11.01;56.78;101154.41;5077097;28;20040;-65
2021/04/21 06:04:28;;;;;;;23.55;15.50;;;;;;;10.84;56.68;101146.25;5092512;28;20035;-65
2021/04/21 06:07:12;;;;;;;19.73;12.63;;;;;;;11.17;55.50;101151.84;5074818;28;20044;-65
2021/04/21 06:09:39;;;;;;;17.80;12.27;;;;;;;11.23;58.69;101150.38;5092136;28;20897;-65
2021/04/21 06:12:13;;;;;;;19.98;12.13;;;;;;;12.01;55.42;101155.63;5092351;28;20111;-64
2021/04/21 06:14:39;;;;;;;23.08;14.20;;;;;;;12.01;54.04;101148.47;5092408;28;20028;-65
2021/04/21 06:17:05;;;;;;;19.77;13.20;;;;;;;12.16;54.47;101146.00;5092445;28;20386;-65
2021/04/21 06:19:31;;;;;;;20.77;14.25;;;;;;;11.88;54.14;101150.75;5091871;28;20051;-65
2021/04/21 06:21:58;;;;;;;21.10;11.93;;;;;;;11.51;55.98;101151.88;5092255;28;20028;-65
2021/04/21 06:24:26;;;;;;;23.85;13.88;;;;;;;11.79;55.45;101155.19;5092214;28;20051;-65
2021/04/21 06:27:05;;;;;;;22.05;13.73;;;;;;;11.31;56.15;101143.25;5074341;28;20383;-65
2021/04/21 06:29:31;;;;;;;18.52;12.65;;;;;;;11.60;56.12;101152.75;5091854;28;20070;-65
2021/04/21 06:32:01;;;;;;;22.13;13.67;;;;;;;11.46;57.18;101148.00;5092144;28;20125;-65
2021/04/21 06:34:27;;;;;;;22.08;14.15;;;;;;;12.16;54.54;101154.03;5091776;28;20058;-65
2021/04/21 06:36:57;;;;;;;19.07;13.37;;;;;;;12.13;53.87;101143.66;5092112;28;20432;-65
2021/04/21 06:39:24;;;;;;;24.00;14.52;;;;;;;11.94;55.13;101155.47;5073739;28;20051;-65
2021/04/21 06:42:00;;;;;;;24.50;14.93;;;;;;;12.24;54.62;101153.19;5091935;28;20043;-65
2021/04/21 06:44:44;;;;;;;24.70;14.20;;;;;;;12.04;55.36;101152.66;5091903;28;20028;-65
2021/04/21 06:47:11;;;;;;;22.30;13.77;;;;;;;12.15;54.92;101159.53;5091832;28;20054;-65
2021/04/21 06:49:36;;;;;;;20.00;12.90;;;;;;;12.39;54.63;101164.13;5073825;28;20475;-65
2021/04/21 06:52:13;;;;;;;20.50;13.93;;;;;;;12.44;54.50;101156.44;5091844;28;20125;-65
2021/04/21 06:54:38;;;;;;;24.10;14.52;;;;;;;11.75;56.60;101159.19;5091739;28;20047;-65
2021/04/21 06:57:03;;;;;;;23.07;14.23;;;;;;;11.62;56.68;101151.59;5057253;28;20047;-65
2021/04/21 06:59:29;;;;;;;27.20;14.77;;;;;;;12.13;55.91;101162.38;5091163;28;20365;-65
2021/04/21 07:01:54;;;;;;;25.03;14.70;;;;;;;11.41;58.72;101159.16;5091667;28;20047;-65
2021/04/21 07:04:20;;;;;;;27.20;15.30;;;;;;;11.86;57.36;101163.41;5090560;28;20036;-65
2021/04/21 07:06:46;;;;;;;27.40;15.70;;;;;;;11.54;58.88;101158.72;5090584;28;20032;-65
2021/04/21 07:09:16;;;;;;;;;;;;;;;11.34;59.33;101158.97;5091611;28;20027;-65
2021/04/21 07:11:42;;;;;;;32.90;16.50;;;;;;;11.76;59.38;101157.34;5091092;28;20355;-65
2021/04/21 07:14:10;;;;;;;30.80;18.23;;;;;;;11.52;60.46;101163.38;5091292;28;20024;-65
2021/04/21 07:16:37;;;;;;;28.95;18.48;;;;;;;10.85;61.72;101171.94;5073652;28;20036;-65
2021/04/21 07:19:12;;;;;;;34.88;19.63;;;;;;;10.37;63.99;101166.97;5073361;28;20104;-65
2021/04/21 07:21:42;;;;;;;33.03;19.73;;;;;;;10.26;64.27;101170.69;5073922;28;20048;-65
2021/04/21 07:24:11;;;;;;;31.80;19.80;;;;;;;10.05;65.63;101171.78;5091407;28;20308;-65
2021/04/21 07:26:39;;;;;;;36.30;23.88;;;;;;;9.47;67.64;101188.00;5089217;28;20032;-65
2021/04/21 07:29:07;;;;;;;45.58;24.17;;;;;;;9.02;69.26;101197.47;5089301;28;20036;-64
2021/04/21 07:31:38;;;;;;;45.08;24.88;;;;;;;9.11;68.66;101190.47;5071666;28;20043;-65
2021/04/21 07:34:03;;;;;;;47.15;27.55;;;;;;;8.53;70.96;101191.31;5089620;28;20040;-65
2021/04/21 07:36:28;;;;;;;48.20;26.07;;;;;;;8.61;71.52;101198.59;5089573;28;20040;-64
2021/04/21 07:39:07;;;;;;;42.90;26.60;;;;;;;8.44;70.90;101195.63;5089370;28;20092;-65
2021/04/21 07:41:38;;;;;;;47.00;26.50;;;;;;;8.35;71.71;101198.25;5089859;28;20180;-65
2021/04/21 07:44:06;;;;;;;43.38;24.23;;;;;;;8.50;71.55;101204.03;5091142;28;20050;-64
2021/04/21 07:46:32;;;;;;;45.38;24.48;;;;;;;8.58;71.56;101206.84;5091174;28;20350;-65
2021/04/21 07:48:58;;;;;;;47.55;26.77;;;;;;;8.33;71.83;101205.50;5090820;28;20127;-65
2021/04/21 07:51:24;;;;;;;48.73;26.40;;;;;;;8.47;71.97;101206.97;5091159;28;20456;-65
2021/04/21 07:53:49;;;;;;;;;;;;;;;8.39;71.89;101203.16;5073593;28;20376;-65
2021/04/21 07:56:15;;;;;;;46.07;24.47;;;;;;;8.45;70.91;101201.78;5091110;28;19912;-65
2021/04/21 07:58:41;;;;;;;43.08;25.02;;;;;;;8.30;72.03;101197.81;5073093;28;20289;-65
2021/04/21 08:01:07;;;;;;;43.75;24.17;;;;;;;8.28;71.97;101192.63;5073156;28;20040;-65
2021/04/21 08:03:33;;;;;;;45.95;24.27;;;;;;;8.32;71.60;101188.72;5091146;28;20036;-64
2021/04/21 08:05:59;;;;;;;;;;;;;;;8.35;72.04;101187.59;5091047;28;20031;-65
2021/04/21 08:08:33;;;;;;;44.40;25.67;;;;;;;8.56;71.87;101183.03;5090494;28;19912;-65
2021/04/21 08:10:59;;;;;;;35.97;22.50;;;;;;;8.42;71.54;101189.59;5073094;28;20060;-65
2021/04/21 08:13:44;;;;;;;42.83;23.95;;;;;;;8.64;70.21;101185.03;5073159;28;20068;-65
2021/04/21 08:16:22;;;;;;;42.90;23.95;;;;;;;9.02;70.39;101183.34;5089783;28;20047;-65
2021/04/21 08:18:48;;;;;;;40.05;22.80;;;;;;;8.84;69.52;101178.69;5072735;28;20395;-65
2021/04/21 08:21:48;;;;;;;37.33;23.77;;;;;;;8.92;70.22;101190.47;5072914;28;20036;-65
2021/04/21 08:24:15;;;;;;;42.75;22.45;;;;;;;9.25;68.98;101187.38;5094279;28;20042;-65
2021/04/21 08:26:45;;;;;;;30.67;18.90;;;;;;;8.97;68.74;101190.91;5076548;28;20075;-65
2021/04/21 08:29:12;;;;;;;31.75;19.15;;;;;;;8.82;68.74;101193.97;5093958;28;20047;-65
2021/04/21 08:31:37;;;;;;;;;;;;;;;8.84;68.90;101196.50;5077054;28;20036;-65
2021/04/21 08:34:03;;;;;;;29.95;17.65;;;;;;;8.83;69.53;101195.66;5076548;28;20023;-65
2021/04/21 08:36:29;;;;;;;29.83;16.95;;;;;;;8.82;68.66;101193.97;5059574;28;20389;-65
2021/04/21 08:38:54;;;;;;;30.87;16.33;;;;;;;8.75;69.08;101190.19;5076209;28;20032;-65
2021/04/21 08:41:20;;;;;;;32.63;17.43;;;;;;;8.80;68.91;101198.63;5076319;28;20036;-65
2021/04/21 08:43:48;;;;;;;30.73;16.42;;;;;;;8.65;69.20;101210.66;5075766;28;20120;-65
2021/04/21 08:46:14;;;;;;;31.98;18.27;;;;;;;8.64;69.29;101208.97;5094112;28;20100;-65
2021/04/21 08:48:40;;;;;;;30.77;17.08;;;;;;;8.74;69.20;101211.66;5093800;28;20050;-65
2021/04/21 08:51:07;;;;;;;31.55;18.63;;;;;;;8.52;69.65;101208.25;5093847;28;20024;-65
2021/04/21 08:53:35;;;;;;;35.28;18.30;;;;;;;8.56;69.98;101204.31;5093253;28;20048;-65
2021/04/21 08:56:02;;;;;;;30.10;17.95;;;;;;;8.53;70.04;101214.41;5093895;28;20054;-65
2021/04/21 08:58:27;;;;;;;36.95;19.83;;;;;;;8.35;70.71;101212.38;5075564;28;20100;-65
2021/04/21 09:00:53;;;;;;;34.53;19.00;;;;;;;8.18;71.00;101205.06;5093847;28;20044;-65
2021/04/21 09:03:19;;;;;;;32.08;19.15;;;;;;;8.38;70.37;101211.25;5093800;28;20032;-64
2021/04/21 09:05:44;;;;;;;32.43;15.30;;;;;;;8.47;69.42;101209.63;5092797;28;20550;-65
2021/04/21 09:08:10;;;;;;;24.17;15.57;;;;;;;8.50;69.28;101212.88;5075503;28;20289;-65
2021/04/21 09:10:37;;;;;;;30.50;16.30;;;;;;;8.70;68.81;101216.38;5093654;28;20035;-65
2021/04/21 09:13:03;;;;;;;28.00;14.57;;;;;;;9.18;67.42;101207.56;5093404;28;20052;-65
2021/04/21 09:15:28;;;;;;;21.95;14.02;;;;;;;9.47;65.59;101210.16;5075830;28;20024;-65
2021/04/21 09:17:56;;;;;;;24.03;14.40;;;;;;;9.57;65.43;101215.47;5093249;28;20031;-65
2021/04/21 09:20:23;;;;;;;20.98;13.20;;;;;;;9.67;65.57;101210.97;5093451;28;20050;-65
2021/04/21 09:23:11;;;;;;;19.73;13.25;;;;;;;9.24;66.62;101214.13;5093268;28;20078;-65
2021/04/21 09:25:54;;;;;;;20.75;11.80;;;;;;;9.15;66.48;101215.00;5075543;28;20441;-64
2021/04/21 09:28:21;;;;;;;26.55;13.90;;;;;;;9.14;65.97;101216.81;5092977;28;20044;-65
2021/04/21 09:30:58;;;;;;;22.08;11.88;;;;;;;9.21;65.55;101204.59;5075421;28;20043;-65
2021/04/21 09:33:28;;;;;;;17.80;9.70;;;;;;;9.41;64.29;101215.22;5075213;28;20048;-65
2021/04/21 09:35:54;;;;;;;14.60;8.52;;;;;;;9.29;63.30;101211.88;5093019;28;20036;-65
2021/04/21 09:38:27;;;;;;;15.20;8.43;;;;;;;9.23;62.74;101213.31;5075109;28;20350;-65
2021/04/21 09:40:58;;;;;;;15.85;8.93;;;;;;;9.06;63.79;101208.69;5075207;28;20071;-65
2021/04/21 09:43:26;;;;;;;27.17;9.50;;;;;;;9.45;63.22;101205.97;5092866;28;20036;-65
2021/04/21 09:45:54;;;;;;;15.63;8.25;;;;;;;9.99;61.98;101211.53;5093055;28;20070;-65
2021/04/21 09:48:31;;;;;;;11.85;7.70;;;;;;;9.97;61.77;101210.84;5074800;28;20448;-65
2021/04/21 09:50:58;;;;;;;13.07;7.72;;;;;;;9.96;60.82;101210.00;5092869;28;20032;-65
2021/04/21 09:53:27;;;;;;;15.43;8.70;;;;;;;10.06;61.57;101216.13;5092896;28;20133;-65
2021/04/21 09:56:08;;;;;;;17.33;7.65;;;;;;;9.84;61.34;101217.34;5092728;28;20032;-65
2021/04/21 09:58:37;;;;;;;22.20;8.70;;;;;;;9.68;62.55;101215.28;5074607;28;20048;-65
2021/04/21 10:01:32;;;;;;;13.40;8.63;;;;;;;9.72;62.10;101211.38;5074678;28;20093;-65
2021/04/21 10:04:03;;;;;;;18.33;9.02;;;;;;;9.65;62.31;101207.59;5092646;28;20051;-65
2021/04/21 10:06:28;;;;;;;18.40;8.73;;;;;;;9.88;61.84;101209.88;5092573;28;20058;-65
2021/04/21 10:08:54;;;;;;;16.87;8.30;;;;;;;9.97;62.19;101213.50;5074384;28;20040;-65
2021/04/21 10:11:19;;;;;;;15.97;7.47;;;;;;;9.97;61.88;101208.16;5092164;28;20023;-65
2021/04/21 10:13:51;;;;;;;16.20;8.07;;;;;;;9.97;60.07;101206.34;5091460;28;20414;-65
2021/04/21 10:16:17;;;;;;;10.20;7.50;;;;;;;9.98;60.58;101201.88;5092364;28;20364;-65
2021/04/21 10:18:43;;;;;;;9.67;6.90;;;;;;;10.10;59.90;101196.19;5092207;28;20036;-64
2021/04/21 10:21:10;;;;;;;14.60;8.07;;;;;;;10.07;59.96;101203.66;5092158;28;20766;-65
2021/04/21 10:23:35;;;;;;;18.77;7.03;;;;;;;9.87;60.03;101200.22;5074540;28;20040;-65
2021/04/21 10:26:06;;;;;;;11.73;6.83;;;;;;;9.95;60.09;101195.00;5092062;28;20028;-65
2021/04/21 10:28:32;;;;;;;12.30;7.43;;;;;;;10.13;59.79;101195.88;5073927;28;20046;-65
2021/04/21 10:31:07;;;;;;;15.82;6.57;;;;;;;10.07;59.89;101196.47;5074313;28;20047;-65
2021/04/21 10:33:33;;;;;;;11.45;6.68;;;;;;;10.05;59.37;101182.44;5074288;28;20489;-65
2021/04/21 10:35:59;;;;;;;15.65;6.28;;;;;;;9.80;59.97;101191.13;5091938;28;20128;-65
2021/04/21 10:38:27;;;;;;;13.10;5.13;;;;;;;9.97;58.65;101185.00;5091642;28;20126;-65
2021/04/21 10:41:39;;;;;;;7.13;4.68;;;;;;;9.97;58.31;101185.00;5091812;28;20143;-65
2021/04/21 10:44:15;;;;;;;11.57;4.30;;;;;;;9.88;57.96;101185.88;5091846;28;20044;-65
2021/04/21 10:47:00;;;;;;;8.07;4.13;;;;;;;10.05;56.82;101179.78;5091084;28;20082;-65
2021/04/21 10:50:03;;;;;;;13.32;3.58;;;;;;;10.40;57.40;101170.19;5082493;28;20036;-65
2021/04/21 10:52:28;;;;;;;9.60;3.05;;;;;;;11.05;54.28;101187.78;5073868;28;20174;-65
2021/04/21 10:55:12;;;;;;;6.27;3.17;;;;;;;11.09;52.96;101173.97;5088337;28;20140;-65
2021/04/21 10:57:53;;;;;;;9.50;2.95;;;;;;;11.39;51.77;101175.34;5083023;28;20031;-65
2021/04/21 11:00:29;;;;;;;8.90;2.45;;;;;;;11.49;50.14;101167.22;5068869;28;20148;-65
2021/04/21 11:03:02;;;;;;;7.73;2.20;;;;;;;11.66;49.40;101157.47;5087954;28;20039;-65
2021/04/21 11:05:41;;;;;;;7.03;2.20;;;;;;;11.70;49.06;101174.03;5089729;28;20036;-65
2021/04/21 11:08:21;;;;;;;5.75;2.42;;;;;;;11.10;50.89;101169.50;5070075;28;20032;-65
2021/04/21 11:10:51;;;;;;;6.97;2.10;;;;;;;11.17;50.64;101163.34;5090170;28;20519;-65
2021/04/21 11:13:40;;;;;;;8.98;2.30;;;;;;;11.30;50.43;101173.63;5090843;28;20411;-65
2021/04/21 11:16:31;;;;;;;10.30;3.08;;;;;;;11.60;50.26;101174.97;5091238;28;20516;-65
2021/04/21 11:19:24;;;;;;;7.70;1.80;;;;;;;11.26;49.26;101171.41;5089555;28;20104;-65
2021/04/21 11:22:18;;;;;;;6.00;2.13;;;;;;;11.12;49.35;101172.81;5073545;28;20043;-65
2021/04/21 11:24:45;;;;;;;6.30;2.00;;;;;;;10.74;48.52;101167.66;5068191;28;20040;-65
2021/04/21 11:27:44;;;;;;;10.43;2.60;;;;;;;11.25;48.42;101165.25;5073265;28;20039;-65
2021/04/21 11:30:31;;;;;;;9.18;1.88;;;;;;;12.96;43.59;101161.47;5073335;28;20040;-65
2021/04/21 11:32:57;;;;;;;6.03;2.55;;;;;;;13.08;42.90;101173.53;5090575;28;20363;-65
2021/04/21 11:35:32;;;;;;;7.40;1.60;;;;;;;13.38;41.65;101162.31;5055110;28;20036;-65
2021/04/21 11:37:58;;;;;;;8.73;1.60;;;;;;;14.06;39.26;101168.97;5088266;28;20106;-66
2021/04/21 11:40:31;;;;;;;8.68;1.77;;;;;;;14.48;37.67;101163.19;5071715;28;20048;-65
2021/04/21 11:43:17;;;;;;;3.47;1.27;;;;;;;14.82;37.10;101169.19;5089058;28;20086;-65
2021/04/21 11:45:43;;;;;;;6.70;1.67;;;;;;;13.87;36.80;101168.38;5090305;28;20464;-65
2021/04/21 11:48:09;;;;;;;9.48;1.60;;;;;;;12.98;39.16;101175.56;5090768;28;20373;-66